Time;durP1;ratioP1;P1;durP2;ratioP2;P2;SDS_P1;SDS_P2;PMS_P1;PMS_P2;Temp;Humidity;BMP_temperature;BMP_pressure;BME280_temperature;BME280_humidity;BME280_pressure;Samples;Min_cycle;Max_cycle;Signal;HPM_P1;HPM_P2
2023/09/18 00:01:25;;;;;;;4.47;4.15;;;20.10;99.90;;;20.45;100.00;100445.84;5039914;28;20041;-77
2023/09/18 00:03:53;;;;;;;6.20;5.75;;;20.10;99.90;;;20.46;100.00;100442.22;5043760;28;20449;-77
2023/09/18 00:06:25;;;;;;;5.70;4.88;;;20.10;99.90;;;20.42;100.00;100433.44;5047065;28;20052;-77
2023/09/18 00:08:53;;;;;;;9.40;6.60;;;20.00;99.90;;;20.43;100.00;100435.19;5051541;28;20107;-77
2023/09/18 00:11:22;;;;;;;6.50;5.88;;;20.10;99.90;;;20.37;100.00;100437.31;5040481;28;20118;-77
2023/09/18 00:13:50;;;;;;;5.90;5.40;;;20.00;99.90;;;20.37;100.00;100432.81;5042826;28;20053;-77
2023/09/18 00:16:19;;;;;;;4.05;3.85;;;20.00;99.90;;;20.46;100.00;100429.63;5048309;28;20056;-78
2023/09/18 00:18:47;;;;;;;8.07;5.15;;;20.10;99.90;;;20.50;100.00;100428.53;5036886;28;20041;-77
2023/09/18 00:21:16;;;;;;;5.63;5.25;;;20.10;99.90;;;20.51;100.00;100426.72;5046577;28;20115;-77
2023/09/18 00:23:46;;;;;;;5.20;4.90;;;20.10;99.90;;;20.51;100.00;100424.03;5044077;28;20446;-77
2023/09/18 00:26:15;;;;;;;3.80;3.58;;;20.10;99.90;;;20.63;100.00;100418.88;5037216;28;20121;-77
2023/09/18 00:28:47;;;;;;;5.65;5.15;;;20.20;99.90;;;20.61;100.00;100409.16;5035789;28;20095;-77
2023/09/18 00:31:16;;;;;;;3.40;3.25;;;20.20;99.90;;;20.68;100.00;100403.38;5053103;28;20135;-75
2023/09/18 00:33:44;;;;;;;2.88;2.78;;;20.30;99.90;;;20.78;100.00;100384.06;5040876;28;20391;-77
2023/09/18 00:36:13;;;;;;;2.83;2.72;;;20.40;99.90;;;20.69;100.00;100364.78;5049124;28;20056;-77
2023/09/18 00:38:41;;;;;;;2.80;2.70;;;20.50;99.90;;;21.01;100.00;100376.53;5038075;28;20770;-78
2023/09/18 00:41:11;;;;;;;8.98;3.25;;;20.60;99.90;;;21.03;100.00;100358.47;5044830;28;20112;-77
2023/09/18 00:43:39;;;;;;;3.00;2.90;;;20.70;99.90;;;21.08;100.00;100360.94;5045584;28;20052;-77
2023/09/18 00:46:08;;;;;;;3.70;3.55;;;20.80;99.90;;;21.01;100.00;100349.63;5036777;28;20038;-77
2023/09/18 00:48:37;;;;;;;3.13;3.03;;;20.70;99.90;;;20.56;100.00;100220.41;5048021;28;20053;-78
2023/09/18 00:51:05;;;;;;;2.30;2.20;;;20.80;99.90;;;21.35;100.00;100324.41;5042489;28;20059;-78
2023/09/18 00:53:33;;;;;;;3.15;2.97;;;21.00;99.90;;;21.49;100.00;100298.41;5039928;28;20430;-77
2023/09/18 00:56:04;;;;;;;2.35;2.25;;;21.20;99.90;;;21.26;100.00;100226.22;5049467;28;20048;-77
2023/09/18 00:58:34;;;;;;;2.90;2.80;;;21.30;99.90;;;21.70;100.00;100292.72;5038865;28;20052;-76
2023/09/18 01:01:04;;;;;;;6.40;5.80;;;21.40;99.90;;;21.49;100.00;100309.16;5043327;28;20060;-77
2023/09/18 01:03:32;;;;;;;4.85;4.43;;;21.30;99.90;;;21.18;100.00;100311.00;5046011;28;20075;-77
2023/09/18 01:06:03;;;;;;;6.95;6.20;;;21.00;99.90;;;20.90;100.00;100306.31;5066068;28;20048;-76
2023/09/18 01:08:31;;;;;;;3.08;2.97;;;20.70;99.90;;;21.01;100.00;100295.84;5039940;28;20102;-77
2023/09/18 01:11:11;;;;;;;3.15;3.05;;;20.60;99.90;;;21.16;100.00;100299.47;5042219;28;20423;-77
2023/09/18 01:13:50;;;;;;;3.60;3.40;;;20.70;99.90;;;21.17;100.00;100296.72;5064998;28;20060;-77
2023/09/18 01:16:26;;;;;;;4.30;4.00;;;20.80;99.90;;;21.17;100.00;100306.59;5047120;28;20135;-77
2023/09/18 01:18:54;;;;;;;3.35;3.25;;;20.80;99.90;;;21.15;100.00;100311.19;5044167;28;20052;-76
2023/09/18 01:21:23;;;;;;;3.22;3.13;;;20.80;99.90;;;21.11;100.00;100301.56;5037605;28;20180;-77
2023/09/18 01:23:53;;;;;;;3.72;3.53;;;20.70;99.90;;;21.23;100.00;100308.94;5051083;28;20048;-77
2023/09/18 01:26:22;;;;;;;3.00;2.90;;;20.80;99.90;;;21.29;100.00;100305.91;5044329;28;20063;-77
2023/09/18 01:28:50;;;;;;;4.00;3.80;;;20.90;99.90;;;21.18;100.00;100309.19;5043731;28;20327;-77
2023/09/18 01:31:19;;;;;;;2.72;2.63;;;20.80;99.90;;;21.04;100.00;100319.00;5035627;28;20739;-77
2023/09/18 01:33:49;;;;;;;3.67;3.38;;;20.70;99.90;;;21.04;100.00;100310.94;5048292;28;20060;-77
2023/09/18 01:36:19;;;;;;;10.82;2.90;;;20.60;99.90;;;21.09;100.00;100303.47;5032906;28;20072;-78
2023/09/18 01:38:48;;;;;;;3.38;3.15;;;20.60;99.90;;;21.17;100.00;100309.28;5044598;28;20478;-77
2023/09/18 01:41:18;;;;;;;4.38;3.42;;;20.70;99.90;;;21.18;100.00;100311.00;5036380;28;20046;-77
2023/09/18 01:43:46;;;;;;;4.22;3.92;;;20.80;99.90;;;21.14;100.00;100312.13;5048106;28;20475;-76
2023/09/18 01:46:15;;;;;;;3.00;2.90;;;20.80;99.90;;;21.32;100.00;100313.78;5041472;28;20041;-78
2023/09/18 01:48:48;;;;;;;2.58;2.47;;;21.00;99.90;;;21.44;100.00;100323.84;5039606;28;20128;-77
2023/09/18 01:51:16;;;;;;;3.15;2.95;;;21.10;99.90;;;21.46;100.00;100321.94;5048594;28;20045;-77
2023/09/18 01:53:45;;;;;;;2.88;2.78;;;21.20;99.90;;;21.56;100.00;100320.47;5037145;28;20064;-77
2023/09/18 01:56:13;;;;;;;3.20;3.05;;;21.30;99.90;;;21.63;100.00;100315.56;5071921;28;20056;-77
2023/09/18 01:58:43;;;;;;;2.28;2.17;;;21.40;99.90;;;21.66;100.00;100328.88;5057815;28;20087;-77
2023/09/18 02:01:12;;;;;;;2.60;2.50;;;21.40;99.90;;;21.76;100.00;100330.03;5070140;28;20048;-77
2023/09/18 02:03:41;;;;;;;2.47;2.38;;;21.50;99.90;;;21.89;100.00;100331.09;5049997;28;20049;-77
2023/09/18 02:06:28;;;;;;;2.28;2.17;;;21.60;99.90;;;21.94;100.00;100329.88;5048276;28;20402;-76
2023/09/18 02:08:57;;;;;;;2.50;2.40;;;21.70;99.90;;;21.99;100.00;100324.22;5055073;28;20044;-77
2023/09/18 02:11:26;;;;;;;2.50;2.40;;;21.80;99.90;;;22.12;100.00;100326.09;5057137;28;20037;-77
2023/09/18 02:13:56;;;;;;;2.55;2.45;;;21.80;99.90;;;22.25;100.00;100323.50;5056274;28;20063;-77
2023/09/18 02:16:26;;;;;;;2.47;2.38;;;22.00;99.90;;;22.25;100.00;100316.28;5042318;28;20045;-77
2023/09/18 02:18:56;;;;;;;2.08;1.98;;;22.00;99.90;;;22.26;100.00;100322.56;5053222;28;20085;-77
2023/09/18 02:21:25;;;;;;;2.55;2.45;;;22.00;99.90;;;22.23;100.00;100326.28;5051458;28;20054;-77
2023/09/18 02:23:54;;;;;;;3.28;3.13;;;22.00;99.90;;;22.13;100.00;100314.31;5046665;28;20040;-77
2023/09/18 02:26:24;;;;;;;2.60;2.40;;;21.90;99.90;;;22.11;100.00;100283.91;5041213;28;20414;-77
2023/09/18 02:28:54;;;;;;;2.40;2.30;;;21.90;99.90;;;22.25;100.00;100264.22;5051696;28;20045;-77
2023/09/18 02:31:24;;;;;;;3.40;3.10;;;22.00;99.90;;;21.98;100.00;100284.75;5042378;28;20041;-77
2023/09/18 02:33:52;;;;;;;2.83;2.72;;;21.80;99.90;;;21.74;100.00;100291.59;5043701;28;20053;-77
2023/09/18 02:36:21;;;;;;;2.78;2.67;;;21.50;99.90;;;21.86;100.00;100280.09;5051389;28;20537;-77
2023/09/18 02:38:50;;;;;;;2.60;2.50;;;21.50;99.90;;;22.00;100.00;100259.47;5034761;28;20060;-77
2023/09/18 02:41:19;;;;;;;2.30;2.20;;;21.60;99.90;;;22.11;100.00;100261.50;5043191;28;20454;-78
2023/09/18 02:43:47;;;;;;;2.80;2.70;;;21.80;99.90;;;22.21;100.00;100250.06;5051042;28;20037;-77
2023/09/18 02:46:17;;;;;;;2.60;2.47;;;21.90;99.90;;;22.26;100.00;100239.84;5051970;28;20140;-77
2023/09/18 02:48:47;;;;;;;2.58;2.47;;;22.00;99.90;;;22.13;100.00;100229.94;5039720;28;20279;-77
2023/09/18 02:51:15;;;;;;;2.45;2.35;;;21.90;99.90;;;22.07;100.00;100220.41;5050930;28;20049;-78
2023/09/18 02:53:44;;;;;;;2.40;2.30;;;21.80;99.90;;;22.10;100.00;100208.59;5046447;28;20053;-77
2023/09/18 02:56:12;;;;;;;2.40;2.30;;;21.70;99.90;;;22.31;100.00;100186.56;5039182;28;20042;-77
2023/09/18 02:58:40;;;;;;;2.58;2.47;;;22.00;99.90;;;22.44;100.00;100182.09;5050206;28;20442;-78
2023/09/18 03:01:09;;;;;;;2.60;2.50;;;22.10;99.90;;;22.47;100.00;100189.13;5044114;28;20041;-77
2023/09/18 03:03:37;;;;;;;2.55;2.45;;;22.20;99.90;;;22.49;100.00;100191.72;5050695;28;20123;-75
2023/09/18 03:06:07;;;;;;;3.83;3.63;;;22.20;99.90;;;22.31;100.00;100200.03;5050570;28;20040;-77
2023/09/18 03:08:36;;;;;;;2.67;2.58;;;22.20;99.90;;;22.14;100.00;100192.13;5055862;28;20156;-77
2023/09/18 03:11:12;;;;;;;2.20;2.10;;;22.00;99.90;;;22.17;100.00;100174.91;5070503;28;20486;-77
2023/09/18 03:13:46;;;;;;;3.30;3.10;;;22.00;99.90;;;22.21;100.00;100165.66;5055637;28;20514;-77
2023/09/18 03:16:16;;;;;;;2.55;2.45;;;22.00;99.90;;;22.17;100.00;100178.47;5050152;28;20148;-77
2023/09/18 03:18:46;;;;;;;2.42;2.33;;;22.00;99.90;;;22.12;100.00;100180.59;5058410;28;20041;-77
2023/09/18 03:21:16;;;;;;;3.17;2.97;;;22.00;99.90;;;22.22;100.00;100213.22;5050283;28;20053;-77
2023/09/18 03:23:44;;;;;;;8.25;5.55;;;22.00;99.90;;;22.10;100.00;100219.34;5067071;28;20103;-77
2023/09/18 03:26:12;;;;;;;4.22;4.03;;;21.90;99.90;;;21.75;100.00;100209.84;5050344;28;20092;-76
2023/09/18 03:28:41;;;;;;;3.60;3.40;;;21.60;99.90;;;21.60;100.00;100202.69;5043393;28;20041;-75
2023/09/18 03:31:12;;;;;;;9.88;5.53;;;21.40;99.90;;;21.60;100.00;100203.56;5049284;28;20065;-75
2023/09/18 03:33:40;;;;;;;3.70;3.40;;;21.40;99.90;;;21.48;100.00;100212.38;5049057;28;20053;-73
2023/09/18 03:36:11;;;;;;;4.72;4.32;;;21.20;99.90;;;21.35;100.00;100240.97;5039229;28;20064;-74
2023/09/18 03:38:41;;;;;;;5.82;5.22;;;21.10;99.90;;;21.13;100.00;100249.41;5044507;28;20080;-74
2023/09/18 03:41:09;;;;;;;4.93;4.53;;;20.90;99.90;;;20.97;100.00;100221.63;5048028;28;20048;-75
2023/09/18 03:43:38;;;;;;;5.20;4.28;;;20.70;99.90;;;21.05;100.00;100207.78;5051519;28;20037;-76
2023/09/18 03:46:06;;;;;;;3.88;3.58;;;20.70;99.90;;;20.97;100.00;100201.94;5049703;28;20077;-75
2023/09/18 03:48:43;;;;;;;6.38;5.88;;;20.70;99.90;;;20.86;100.00;100209.75;5044355;28;20091;-75
2023/09/18 03:51:15;;;;;;;6.88;6.15;;;20.60;99.90;;;20.74;100.00;100215.81;5038937;28;20049;-75
2023/09/18 03:53:46;;;;;;;5.32;4.65;;;20.50;99.90;;;20.72;100.00;100223.09;5038350;28;20531;-74
2023/09/18 03:56:15;;;;;;;4.85;4.45;;;20.40;99.90;;;20.73;100.00;100224.84;5046085;28;20052;-74
2023/09/18 03:58:45;;;;;;;3.95;3.75;;;20.40;99.90;;;20.72;100.00;100223.97;5045405;28;20070;-75
2023/09/18 04:01:13;;;;;;;4.43;4.13;;;20.40;99.90;;;20.68;100.00;100230.47;5069019;28;20457;-75
2023/09/18 04:03:41;;;;;;;4.80;4.40;;;20.40;99.90;;;20.75;100.00;100209.50;5037629;28;20099;-75
2023/09/18 04:06:10;;;;;;;3.47;3.38;;;20.50;99.90;;;20.86;100.00;100207.06;5054113;28;20496;-75
2023/09/18 04:08:38;;;;;;;3.13;3.03;;;20.60;99.90;;;21.02;100.00;100183.75;5041287;28;20444;-75
2023/09/18 04:11:09;;;;;;;2.70;2.60;;;20.70;99.90;;;21.12;100.00;100184.94;5049520;28;20414;-75
2023/09/18 04:13:38;;;;;;;8.57;8.07;;;20.90;99.90;;;21.24;100.00;100181.53;5048717;28;20049;-73
2023/09/18 04:16:07;;;;;;;2.70;2.60;;;21.00;99.90;;;21.38;100.00;100162.75;5043321;28;20425;-75
2023/09/18 04:18:36;;;;;;;3.13;3.03;;;21.10;99.90;;;21.53;100.00;100149.22;5049057;28;20077;-75
2023/09/18 04:21:04;;;;;;;5.22;4.38;;;21.20;99.90;;;21.63;100.00;100140.59;5048814;28;20048;-74
2023/09/18 04:23:33;;;;;;;2.50;2.40;;;21.30;99.90;;;21.73;100.00;100133.69;5055008;28;20079;-75
2023/09/18 04:26:02;;;;;;;2.93;2.83;;;21.40;99.90;;;21.81;100.00;100121.53;5053577;28;20483;-74
2023/09/18 04:28:32;;;;;;;2.70;2.60;;;21.50;99.90;;;21.74;100.00;100113.91;5039454;28;20316;-75
2023/09/18 04:31:00;;;;;;;2.23;2.13;;;21.50;99.90;;;21.92;100.00;100129.78;5050922;28;20103;-75
2023/09/18 04:33:29;;;;;;;2.90;2.80;;;21.60;99.90;;;22.03;100.00;100147.94;5048454;28;20065;-73
2023/09/18 04:35:58;;;;;;;3.10;3.00;;;21.70;99.90;;;22.04;100.00;100157.78;5042476;28;20037;-75
2023/09/18 04:38:27;;;;;;;2.70;2.60;;;21.80;99.90;;;22.06;100.00;100163.94;5053324;28;20065;-75
2023/09/18 04:40:59;;;;;;;2.70;2.60;;;21.80;99.90;;;22.04;100.00;100179.31;5050805;28;20087;-75
2023/09/18 04:43:30;;;;;;;6.82;3.72;;;21.80;99.90;;;22.04;100.00;100169.44;5048381;28;20486;-76
2023/09/18 04:46:04;;;;;;;2.85;2.75;;;21.80;99.90;;;22.10;100.00;100163.66;5044374;28;20045;-75
2023/09/18 04:48:35;;;;;;;2.50;2.40;;;21.80;99.90;;;22.15;100.00;100155.25;5049580;28;20085;-75
2023/09/18 04:51:05;;;;;;;2.60;2.50;;;21.90;99.90;;;22.16;100.00;100171.31;5048862;28;20038;-76
2023/09/18 04:53:34;;;;;;;3.22;3.13;;;21.90;99.90;;;22.14;100.00;100162.47;5041265;28;20087;-76
2023/09/18 04:56:03;;;;;;;2.90;2.80;;;21.90;99.90;;;22.17;100.00;100150.66;5048276;28;20056;-76
2023/09/18 04:58:33;;;;;;;2.70;2.60;;;21.90;99.90;;;22.18;100.00;100136.22;5048140;28;20182;-76
2023/09/18 05:01:04;;;;;;;2.40;2.30;;;21.90;99.90;;;22.21;100.00;100136.03;5054404;28;20053;-75
2023/09/18 05:03:41;;;;;;;3.03;2.92;;;21.90;99.90;;;22.27;100.00;100130.25;5068228;28;20144;-76
2023/09/18 05:06:11;;;;;;;3.33;3.13;;;22.00;99.90;;;22.26;100.00;100142.00;5048500;28;20049;-74
2023/09/18 05:08:40;;;;;;;2.60;2.50;;;21.90;99.90;;;22.28;100.00;100138.22;5035915;28;20056;-76
2023/09/18 05:11:08;;;;;;;2.42;2.33;;;21.90;99.90;;;22.31;100.00;100140.75;5044515;28;20056;-76
2023/09/18 05:13:39;;;;;;;2.55;2.45;;;22.00;99.90;;;22.24;100.00;100128.59;5045147;28;20055;-76
2023/09/18 05:16:09;;;;;;;2.65;2.55;;;21.90;99.90;;;22.18;100.00;100128.16;5036641;28;20052;-76
2023/09/18 05:18:37;;;;;;;2.80;2.70;;;22.00;99.90;;;22.34;100.00;100127.06;5047749;28;20046;-75
2023/09/18 05:21:06;;;;;;;2.88;2.78;;;22.00;99.90;;;22.34;100.00;100113.56;5041685;28;20323;-76
2023/09/18 05:23:34;;;;;;;2.60;2.50;;;22.00;99.90;;;22.36;100.00;100103.56;5039379;28;20069;-76
2023/09/18 05:26:03;;;;;;;2.55;2.45;;;22.00;99.90;;;22.37;100.00;100099.91;5048855;28;20550;-76
2023/09/18 05:28:31;;;;;;;2.55;2.45;;;22.00;99.90;;;22.37;100.00;100102.63;5037809;28;20521;-76
2023/09/18 05:31:00;;;;;;;2.47;2.38;;;22.10;99.90;;;22.29;100.00;100086.06;5042730;28;20051;-76
2023/09/18 05:33:30;;;;;;;2.70;2.60;;;22.10;99.90;;;22.40;100.00;100104.22;5046676;28;20067;-76
2023/09/18 05:35:58;;;;;;;2.55;2.45;;;22.00;99.90;;;22.39;100.00;100098.00;5036449;28;20053;-76
2023/09/18 05:38:26;;;;;;;2.30;2.20;;;22.10;99.90;;;22.44;100.00;100103.94;5046536;28;20092;-76
2023/09/18 05:40:55;;;;;;;2.53;2.42;;;22.10;99.90;;;22.45;100.00;100100.25;5041858;28;20045;-77
2023/09/18 05:43:23;;;;;;;4.43;2.92;;;22.10;99.90;;;22.47;100.00;100110.09;5038132;28;20045;-78
2023/09/18 05:45:52;;;;;;;2.40;2.30;;;22.10;99.90;;;22.47;100.00;100105.56;5049141;28;20068;-78
2023/09/18 05:48:20;;;;;;;2.40;2.30;;;22.10;99.90;;;22.48;100.00;100107.28;5046182;28;20049;-79
2023/09/18 05:50:52;;;;;;;2.58;2.47;;;22.20;99.90;;;22.51;100.00;100107.09;5042454;28;20124;-78
2023/09/18 05:53:21;;;;;;;2.47;2.38;;;22.20;99.90;;;22.52;100.00;100094.47;5037597;28;20049;-73
2023/09/18 05:55:49;;;;;;;2.42;2.33;;;22.20;99.90;;;22.51;100.00;100093.63;5048518;28;20041;-77
2023/09/18 05:58:22;;;;;;;2.45;2.35;;;22.20;99.90;;;21.93;100.00;99996.00;5039089;28;20033;-76
2023/09/18 06:00:50;;;;;;;2.80;2.70;;;22.20;99.90;;;22.49;100.00;100102.78;5040443;28;20136;-74
2023/09/18 06:03:20;;;;;;;2.20;2.10;;;22.20;99.90;;;22.47;100.00;100115.47;5047778;28;20056;-75
2023/09/18 06:05:50;;;;;;;2.40;2.30;;;22.20;99.90;;;22.43;100.00;100121.06;5036451;28;20051;-74
2023/09/18 06:08:19;;;;;;;2.50;2.40;;;22.10;99.90;;;22.33;100.00;100105.59;5043883;28;20040;-73
2023/09/18 06:10:48;;;;;;;2.13;2.03;;;22.00;99.90;;;22.23;100.00;100116.09;5044721;28;20723;-79
2023/09/18 06:13:16;;;;;;;2.80;2.65;;;21.90;99.90;;;22.16;100.00;100106.66;5036313;28;20045;-76
2023/09/18 06:15:44;;;;;;;3.70;3.45;;;21.80;99.90;;;22.07;100.00;100109.09;5047741;28;20124;-76
2023/09/18 06:18:13;;;;;;;2.70;2.60;;;21.80;99.90;;;22.01;100.00;100113.03;5040714;28;20090;-76
2023/09/18 06:20:43;;;;;;;3.28;3.05;;;21.70;99.90;;;21.94;100.00;100110.84;5047562;28;20064;-77
2023/09/18 06:23:13;;;;;;;2.92;2.78;;;21.60;99.90;;;21.89;100.00;100119.19;5048258;28;20053;-78
2023/09/18 06:25:42;;;;;;;2.80;2.70;;;21.60;99.90;;;21.84;100.00;100126.69;5037399;28;20049;-75
2023/09/18 06:28:10;;;;;;;3.15;2.95;;;21.50;99.90;;;21.71;100.00;100104.16;5042640;28;20284;-79
2023/09/18 06:30:39;;;;;;;2.63;2.53;;;21.40;99.90;;;21.72;100.00;100105.03;5045700;28;20513;-73
2023/09/18 06:33:07;;;;;;;2.72;2.63;;;21.40;99.90;;;21.74;100.00;100098.56;5035975;28;20487;-73
2023/09/18 06:35:36;;;;;;;2.70;2.60;;;21.40;99.90;;;21.77;100.00;100098.41;5046160;28;20053;-74
2023/09/18 06:38:06;;;;;;;2.58;2.47;;;21.40;99.90;;;21.75;100.00;100094.94;5041716;28;20391;-75
2023/09/18 06:40:36;;;;;;;2.90;2.80;;;21.40;99.90;;;21.78;100.00;100093.88;5036924;28;20092;-73
2023/09/18 06:43:05;;;;;;;2.83;2.72;;;21.40;99.90;;;21.78;100.00;100083.97;5050907;28;20077;-75
2023/09/18 06:45:34;;;;;;;2.30;2.20;;;21.50;99.90;;;21.76;100.00;100095.78;5041562;28;20056;-76
2023/09/18 06:48:03;;;;;;;2.75;2.65;;;21.40;99.90;;;21.74;100.00;100100.44;5043693;28;20479;-75
2023/09/18 06:50:31;;;;;;;2.70;2.60;;;21.40;99.90;;;21.71;100.00;100101.47;5049960;28;20049;-75
2023/09/18 06:53:00;;;;;;;2.63;2.53;;;21.40;99.90;;;21.71;100.00;100109.56;5038639;28;20044;-75
2023/09/18 06:55:28;;;;;;;2.60;2.50;;;21.40;99.90;;;21.67;100.00;100124.16;5047624;28;20111;-80
2023/09/18 06:57:58;;;;;;;2.33;2.22;;;21.30;99.90;;;21.55;100.00;100114.16;5046321;28;20091;-78
2023/09/18 07:00:26;;;;;;;2.70;2.60;;;21.30;99.90;;;21.51;100.00;100107.22;5039393;28;20050;-73
2023/09/18 07:02:55;;;;;;;2.30;2.20;;;21.20;99.90;;;21.51;100.00;100113.47;5051306;28;20303;-76
2023/09/18 07:05:24;;;;;;;2.70;2.60;;;21.20;99.90;;;21.55;100.00;100122.22;5042397;28;20083;-77
2023/09/18 07:07:52;;;;;;;2.10;2.00;;;21.20;99.90;;;21.53;100.00;100116.94;5042875;28;20049;-75
2023/09/18 07:10:21;;;;;;;3.08;2.97;;;21.20;99.90;;;21.55;100.00;100125.78;5050524;28;20049;-73
2023/09/18 07:12:49;;;;;;;2.47;2.38;;;21.20;99.90;;;21.66;100.00;100126.97;5038668;28;20132;-75
2023/09/18 07:15:19;;;;;;;2.53;2.42;;;21.30;99.90;;;21.71;100.00;100120.31;5046587;28;20522;-77
2023/09/18 07:17:48;;;;;;;2.40;2.30;;;21.40;99.90;;;21.88;100.00;100121.97;5047179;28;20469;-74
2023/09/18 07:20:17;;;;;;;2.50;2.40;;;21.50;99.90;;;21.91;100.00;100125.34;5038425;28;20079;-74
2023/09/18 07:22:48;;;;;;;3.63;3.42;;;21.60;99.90;;;22.00;100.00;100130.19;5050394;28;20057;-74
2023/09/18 07:25:17;;;;;;;2.75;2.65;;;21.70;99.90;;;22.12;100.00;100128.53;5042430;28;20487;-74
2023/09/18 07:27:46;;;;;;;2.20;2.10;;;21.80;99.90;;;22.15;100.00;100126.50;5041342;28;20056;-74
2023/09/18 07:30:17;;;;;;;2.55;2.45;;;21.90;99.90;;;22.26;100.00;100140.16;5050903;28;20095;-74
2023/09/18 07:32:47;;;;;;;2.40;2.30;;;21.90;99.90;;;22.43;100.00;100153.41;5040329;28;20061;-74
2023/09/18 07:35:15;;;;;;;3.28;3.08;;;22.10;99.90;;;22.58;100.00;100151.59;5044774;28;20053;-75
2023/09/18 07:37:46;;;;;;;2.70;2.60;;;22.30;99.90;;;22.72;100.00;100172.25;5049103;28;20090;-64
2023/09/18 07:40:16;;;;;;;2.60;2.50;;;22.40;99.90;;;22.88;99.52;100170.31;5038387;28;20463;-66
2023/09/18 07:42:45;;;;;;;2.30;2.20;;;22.60;99.90;;;23.13;98.33;100171.25;5050043;28;20083;-66
2023/09/18 07:45:14;;;;;;;2.47;2.38;;;22.80;99.90;;;23.41;97.64;100170.28;5045353;28;20045;-68
2023/09/18 07:47:42;;;;;;;2.40;2.30;;;23.10;99.90;;;23.51;95.29;100170.50;5038558;28;20388;-76
2023/09/18 07:50:12;;;;;;;2.00;1.90;;;23.30;99.90;;;23.75;95.05;100169.66;5050299;28;20077;-76
2023/09/18 07:52:40;;;;;;;2.08;1.98;;;23.50;99.90;;;23.98;92.98;100171.63;5040806;28;20073;-71
2023/09/18 07:55:10;;;;;;;2.05;1.95;;;23.70;99.90;;;24.31;92.05;100184.63;5042405;28;20037;-71
2023/09/18 07:57:40;;;;;;;1.67;1.67;;;24.00;99.90;;;24.62;91.05;100181.41;5048567;28;20048;-69
2023/09/18 08:00:12;;;;;;;2.38;2.28;;;24.30;99.90;;;24.62;87.66;100169.75;5038464;28;20057;-73
2023/09/18 08:02:41;;;;;;;2.65;2.55;;;24.50;99.90;;;24.63;85.23;100185.00;5049103;28;20068;-73
2023/09/18 08:05:13;;;;;;;4.10;2.38;;;24.40;99.90;;;24.72;86.01;100193.31;5046559;28;20049;-69
2023/09/18 08:07:41;;;;;;;2.10;2.00;;;24.40;99.90;;;24.72;84.67;100187.03;5037158;28;20399;-69
2023/09/18 08:10:12;;;;;;;2.17;2.08;;;24.40;99.90;;;24.62;84.13;100194.94;5047910;28;20042;-67
2023/09/18 08:12:41;;;;;;;2.85;2.65;;;24.40;99.90;;;24.83;84.59;100211.50;5043991;28;20067;-67
2023/09/18 08:15:11;;;;;;;2.20;2.10;;;24.50;99.90;;;24.89;84.57;100205.63;5039573;28;20092;-68
2023/09/18 08:17:40;;;;;;;3.10;2.85;;;24.60;99.90;;;24.80;83.41;100200.88;5049962;28;20397;-70
2023/09/18 08:20:15;;;;;;;2.67;2.47;;;24.60;99.90;;;24.68;82.88;100218.84;5040521;28;20106;-67
2023/09/18 08:22:44;;;;;;;2.55;2.35;;;24.40;99.90;;;24.55;83.13;100192.78;5042597;28;20133;-70
2023/09/18 08:25:13;;;;;;;2.13;2.03;;;24.30;99.90;;;24.27;83.67;100196.66;5049524;28;20173;-68
2023/09/18 08:27:43;;;;;;;1.83;1.77;;;24.00;99.90;;;24.06;85.02;100196.31;5036907;28;20567;-69
2023/09/18 08:30:14;;;;;;;2.45;2.35;;;23.80;99.90;;;23.90;85.57;100200.19;5048855;28;20049;-69
2023/09/18 08:32:44;;;;;;;2.35;2.25;;;23.60;99.90;;;23.64;86.25;100215.47;5045843;28;20056;-68
2023/09/18 08:35:14;;;;;;;2.50;2.40;;;23.30;99.90;;;23.30;87.06;100203.38;5037273;28;20052;-70
2023/09/18 08:37:43;;;;;;;2.03;1.92;;;23.00;99.90;;;23.08;87.65;100204.91;5048620;28;20125;-70
2023/09/18 08:40:13;;;;;;;2.20;2.10;;;22.80;99.90;;;22.98;89.73;100207.34;5042678;28;20055;-72
2023/09/18 08:42:48;;;;;;;2.22;2.13;;;22.70;99.90;;;22.94;90.52;100213.03;5039753;28;20052;-71
2023/09/18 08:45:24;;;;;;;2.25;2.15;;;22.60;99.90;;;22.82;91.03;100225.50;5049126;28;20041;-69
2023/09/18 08:47:53;;;;;;;3.13;2.97;;;22.50;99.90;;;22.74;91.82;100216.19;5040787;28;20056;-70
2023/09/18 08:50:25;;;;;;;3.97;3.03;;;22.40;99.90;;;22.61;91.42;100201.78;5041359;28;20120;-69
2023/09/18 08:52:55;;;;;;;3.65;3.17;;;22.30;99.90;;;22.57;92.01;100211.84;5064488;28;20471;-69
2023/09/18 08:55:25;;;;;;;3.40;3.20;;;22.20;99.90;;;22.53;92.23;100212.97;5037494;28;20071;-70
2023/09/18 08:57:54;;;;;;;3.38;3.08;;;22.20;99.90;;;22.68;92.53;100222.84;5048672;28;20080;-71
2023/09/18 09:00:23;;;;;;;2.50;2.40;;;22.30;99.90;;;22.27;92.65;100131.13;5046146;28;20449;-70
2023/09/18 09:02:53;;;;;;;3.00;2.90;;;22.40;99.90;;;22.79;91.46;100224.81;5035942;28;20037;-70
2023/09/18 09:05:24;;;;;;;2.70;2.60;;;22.40;99.90;;;22.81;90.78;100229.16;5046241;28;20060;-71
2023/09/18 09:07:54;;;;;;;3.60;3.40;;;22.40;99.90;;;22.71;89.11;100228.03;5042925;28;20053;-71
2023/09/18 09:10:22;;;;;;;3.30;3.10;;;22.40;99.90;;;22.52;89.34;100229.25;5038429;28;20052;-70
2023/09/18 09:12:55;;;;;;;4.43;4.03;;;22.20;99.90;;;22.43;88.39;100225.34;5048968;28;20044;-70
2023/09/18 09:15:26;;;;;;;2.75;2.65;;;22.10;99.90;;;22.32;88.63;100193.66;5039413;28;20053;-68
2023/09/18 09:18:05;;;;;;;3.28;3.08;;;22.10;99.90;;;22.63;88.01;100216.84;5041509;28;20399;-68
2023/09/18 09:20:36;;;;;;;5.03;3.45;;;22.30;99.90;;;22.70;87.52;100236.22;5048953;28;20468;-68
2023/09/18 09:23:09;;;;;;;3.05;2.83;;;22.30;99.90;;;23.02;87.41;100226.88;5037983;28;20049;-68
2023/09/18 09:25:37;;;;;;;6.40;3.20;;;22.60;99.90;;;23.19;85.48;100229.34;5042635;28;20041;-68
2023/09/18 09:28:08;;;;;;;2.92;2.72;;;22.80;99.90;;;23.33;84.80;100212.25;5046463;28;20454;-68
2023/09/18 09:30:37;;;;;;;4.15;3.80;;;23.00;99.90;;;23.45;84.17;100231.19;5036296;28;20124;-68
2023/09/18 09:33:07;;;;;;;3.15;3.00;;;23.10;99.90;;;23.73;84.52;100224.81;5046032;28;20045;-67
2023/09/18 09:35:39;;;;;;;2.65;2.55;;;23.30;99.90;;;23.85;82.66;100235.59;5043645;28;20047;-68
2023/09/18 09:38:15;;;;;;;2.88;2.42;;;23.50;99.90;;;23.28;80.59;100115.38;5048178;28;20509;-68
2023/09/18 09:40:45;;;;;;;2.55;2.45;;;23.60;99.90;;;24.04;81.94;100233.38;5037174;28;20079;-68
2023/09/18 09:43:15;;;;;;;2.72;2.58;;;23.70;99.90;;;23.98;80.71;100241.03;5043193;28;20045;-68
2023/09/18 09:45:46;;;;;;;5.57;3.90;;;23.70;99.90;;;23.83;81.30;100236.66;5045925;28;20091;-67
2023/09/18 09:48:15;;;;;;;3.03;2.88;;;23.60;99.90;;;23.76;81.58;100246.19;5036099;28;20291;-68
2023/09/18 09:50:50;;;;;;;2.55;2.45;;;23.50;99.90;;;23.17;80.78;100147.63;5046911;28;20045;-67
2023/09/18 09:53:19;;;;;;;2.95;2.80;;;23.40;99.90;;;23.57;81.80;100246.59;5043962;28;20121;-68
2023/09/18 09:55:55;;;;;;;4.75;4.45;;;23.30;99.90;;;23.43;82.62;100235.84;5037498;28;20475;-67
2023/09/18 09:58:32;;;;;;;2.63;2.53;;;23.10;99.90;;;23.62;83.47;100244.41;5036369;28;20123;-67
2023/09/18 10:01:09;;;;;;;2.97;2.78;;;23.30;99.90;;;23.51;81.92;100248.81;5043013;28;20045;-67
2023/09/18 10:03:39;;;;;;;7.57;2.70;;;23.20;99.90;;;23.60;82.78;100254.47;5046550;28;20059;-68
2023/09/18 10:06:12;;;;;;;2.45;2.35;;;23.30;99.90;;;23.82;83.64;100252.03;5035437;28;20376;-67
2023/09/18 10:08:42;;;;;;;2.47;2.38;;;23.40;99.90;;;23.70;80.57;100254.69;5044151;28;20038;-68
2023/09/18 10:11:16;;;;;;;2.53;2.42;;;23.40;99.90;;;23.58;80.64;100261.81;5043541;28;20037;-67
2023/09/18 10:13:49;;;;;;;3.25;3.05;;;23.30;99.90;;;23.48;80.11;100235.53;5035475;28;20045;-67
2023/09/18 10:16:20;;;;;;;8.30;3.85;;;23.20;99.90;;;23.64;81.88;100234.38;5048720;28;20120;-67
2023/09/18 10:19:07;;;;;;;2.42;2.33;;;23.30;99.90;;;23.78;81.27;100242.41;5045758;28;20160;-67